Time;durP1;ratioP1;P1;durP2;ratioP2;P2;SDS_P1;SDS_P2;PMS_P1;PMS_P2;Temp;Humidity;BMP_temperature;BMP_pressure;BME280_temperature;BME280_humidity;BME280_pressure;Samples;Min_cycle;Max_cycle;Signal;HPM_P1;HPM_P2
2021/01/09 00:01:54;;;;;;;14.40;9.70;;;;;;;6.28;81.91;99787.22;5075630;28;20481;-76
2021/01/09 00:04:20;;;;;;;11.38;8.10;;;;;;;6.24;82.63;99775.28;5075822;28;20029;-76
2021/01/09 00:06:46;;;;;;;10.63;8.38;;;;;;;6.24;82.25;99762.28;5075322;28;20032;-76
2021/01/09 00:09:12;;;;;;;12.38;8.75;;;;;;;6.31;81.62;99761.69;5075829;28;20494;-76
2021/01/09 00:11:38;;;;;;;9.55;8.55;;;;;;;6.35;81.35;99759.06;5075742;28;20024;-76
2021/01/09 00:14:03;;;;;;;10.90;8.63;;;;;;;6.29;81.76;99773.09;5075636;28;20027;-75
2021/01/09 00:16:29;;;;;;;11.43;8.50;;;;;;;6.28;82.90;99771.50;5076431;28;20035;-76
2021/01/09 00:18:55;;;;;;;11.38;8.32;;;;;;;6.30;82.10;99760.88;5076458;28;20062;-76
2021/01/09 00:21:20;;;;;;;8.95;7.93;;;;;;;6.28;83.26;99756.84;5076128;28;20032;-76
2021/01/09 00:23:49;;;;;;;8.57;7.32;;;;;;;6.25;82.43;99754.78;5076576;28;20028;-76
2021/01/09 00:26:18;;;;;;;8.25;7.38;;;;;;;6.22;82.44;99749.94;5076531;28;20031;-76
2021/01/09 00:28:49;;;;;;;9.07;6.97;;;;;;;6.20;82.33;99739.25;5079468;28;20024;-76
2021/01/09 00:31:17;;;;;;;9.50;8.50;;;;;;;6.15;82.69;99736.69;5082675;28;20024;-76
2021/01/09 00:33:42;;;;;;;11.02;8.50;;;;;;;6.27;82.63;99755.22;5082570;28;20032;-76
2021/01/09 00:36:08;;;;;;;9.05;7.40;;;;;;;6.28;82.65;99757.69;5083404;28;20020;-76
2021/01/09 00:38:34;;;;;;;11.38;8.50;;;;;;;6.32;82.20;99745.91;5081744;28;20039;-76
2021/01/09 00:40:59;;;;;;;10.40;8.63;;;;;;;6.27;82.39;99745.00;5082738;28;20429;-76
2021/01/09 00:43:25;;;;;;;11.77;7.57;;;;;;;6.26;82.40;99732.34;5083726;28;20024;-76
2021/01/09 00:45:50;;;;;;;7.07;6.38;;;;;;;6.27;82.84;99711.84;5082920;28;20431;-76
2021/01/09 00:48:16;;;;;;;7.20;6.43;;;;;;;6.26;82.99;99704.69;5083001;28;20031;-76
2021/01/09 00:50:42;;;;;;;9.40;7.28;;;;;;;6.26;83.72;99709.44;5083165;28;20032;-76
2021/01/09 00:53:07;;;;;;;10.25;7.60;;;;;;;6.30;83.51;99716.69;5084262;28;20165;-75
2021/01/09 00:55:33;;;;;;;10.35;7.88;;;;;;;6.34;83.22;99721.50;5084808;28;20031;-76
2021/01/09 00:57:58;;;;;;;8.52;7.60;;;;;;;6.33;82.97;99704.13;5083598;28;20032;-76
2021/01/09 01:00:24;;;;;;;8.02;7.07;;;;;;;6.41;82.83;99724.50;5080414;28;20043;-76
2021/01/09 01:02:49;;;;;;;10.77;7.70;;;;;;;6.49;82.08;99734.63;5079924;28;20027;-76
2021/01/09 01:05:15;;;;;;;7.93;6.78;;;;;;;6.44;81.92;99735.66;5080559;28;20034;-76
2021/01/09 01:07:41;;;;;;;6.78;6.15;;;;;;;6.50;81.45;99727.97;5099023;28;20116;-76
2021/01/09 01:10:07;;;;;;;6.97;6.05;;;;;;;6.46;81.09;99730.59;5080151;28;20035;-76
2021/01/09 01:12:33;;;;;;;6.45;5.57;;;;;;;6.42;81.83;99718.63;5080367;28;20034;-76
2021/01/09 01:14:59;;;;;;;9.63;6.57;;;;;;;6.46;81.58;99718.75;5080896;28;20028;-76
2021/01/09 01:17:24;;;;;;;7.78;6.97;;;;;;;6.42;82.70;99720.59;5081476;28;20054;-76
2021/01/09 01:19:50;;;;;;;7.40;6.60;;;;;;;6.42;82.36;99717.81;5081280;28;20028;-76
2021/01/09 01:22:16;;;;;;;7.72;6.13;;;;;;;6.44;82.16;99723.81;5081037;28;20032;-76
2021/01/09 01:24:42;;;;;;;7.68;6.88;;;;;;;6.52;82.65;99731.19;5081129;28;20097;-76
2021/01/09 01:27:07;;;;;;;9.05;7.13;;;;;;;6.60;81.48;99748.78;5080457;28;20024;-76
2021/01/09 01:29:33;;;;;;;6.63;5.63;;;;;;;6.62;81.95;99765.84;5080305;28;20031;-76
2021/01/09 01:31:59;;;;;;;6.85;6.05;;;;;;;6.67;80.89;99762.84;5080528;28;20601;-76
2021/01/09 01:34:25;;;;;;;7.35;5.78;;;;;;;6.64;81.11;99758.81;5079905;28;20020;-75
2021/01/09 01:36:51;;;;;;;7.65;6.13;;;;;;;6.62;81.34;99758.34;5080730;28;20034;-76
2021/01/09 01:39:20;;;;;;;7.60;6.78;;;;;;;6.65;81.46;99759.59;5099136;28;20032;-76
2021/01/09 01:41:45;;;;;;;7.68;6.00;;;;;;;6.67;81.23;99766.41;5076515;28;20136;-75
2021/01/09 01:44:11;;;;;;;7.97;6.32;;;;;;;6.69;81.22;99769.63;5077491;28;20494;-76
2021/01/09 01:46:41;;;;;;;7.53;6.70;;;;;;;6.68;81.69;99753.41;5077137;28;20028;-76
2021/01/09 01:49:07;;;;;;;8.90;6.55;;;;;;;6.75;80.35;99762.72;5076542;28;20033;-75
2021/01/09 01:51:36;;;;;;;6.80;6.05;;;;;;;6.73;80.67;99762.25;5077042;28;20422;-76
2021/01/09 01:54:04;;;;;;;9.52;5.93;;;;;;;6.63;81.58;99765.50;5077391;28;20033;-76
2021/01/09 01:56:30;;;;;;;7.25;6.55;;;;;;;6.63;81.51;99764.69;5078584;28;20471;-75
2021/01/09 01:58:56;;;;;;;7.63;5.60;;;;;;;6.60;82.16;99777.22;5078995;28;20028;-76
2021/01/09 02:01:23;;;;;;;8.40;6.95;;;;;;;6.68;81.81;99776.31;5080009;28;20040;-76
2021/01/09 02:03:48;;;;;;;6.35;5.72;;;;;;;6.68;81.85;99773.56;5079338;28;20479;-76
2021/01/09 02:06:20;;;;;;;6.10;5.50;;;;;;;6.75;82.14;99759.13;5077818;28;20036;-76
2021/01/09 02:09:00;;;;;;;6.75;5.47;;;;;;;6.77;82.62;99756.84;5077801;28;20086;-76
2021/01/09 02:11:35;;;;;;;6.78;5.78;;;;;;;6.86;81.91;99756.72;5077753;28;20028;-76
2021/01/09 02:14:02;;;;;;;7.30;5.50;;;;;;;6.80;82.53;99751.41;5078160;28;20020;-76
2021/01/09 02:16:28;;;;;;;6.85;5.05;;;;;;;6.79;82.30;99757.31;5079902;28;20029;-75
2021/01/09 02:18:55;;;;;;;10.57;5.53;;;;;;;6.76;82.68;99746.91;5080895;28;20080;-76
2021/01/09 02:21:32;;;;;;;6.10;5.45;;;;;;;6.76;82.76;99728.38;5079630;28;20025;-76
2021/01/09 02:23:57;;;;;;;6.15;5.50;;;;;;;6.80;82.66;99721.00;5080034;28;20101;-76
2021/01/09 02:26:23;;;;;;;5.75;4.60;;;;;;;6.80;82.78;99714.66;5079543;28;20467;-76
2021/01/09 02:28:49;;;;;;;8.07;5.68;;;;;;;6.76;82.60;99699.91;5079409;28;20028;-76
2021/01/09 02:31:19;;;;;;;5.95;5.25;;;;;;;6.82;82.26;99715.13;5079491;28;20079;-76
2021/01/09 02:33:45;;;;;;;7.32;5.38;;;;;;;6.84;81.05;99723.88;5079607;28;20116;-76
2021/01/09 02:36:10;;;;;;;9.02;5.85;;;;;;;6.79;81.30;99710.28;5079512;28;20441;-76
2021/01/09 02:38:36;;;;;;;7.38;5.80;;;;;;;6.78;81.88;99703.97;5079077;28;20063;-76
2021/01/09 02:41:03;;;;;;;7.10;5.90;;;;;;;6.80;82.07;99707.16;5078809;28;20072;-76
2021/01/09 02:43:29;;;;;;;5.95;5.13;;;;;;;6.82;81.83;99709.59;5078398;28;20035;-76
2021/01/09 02:45:54;;;;;;;8.13;6.63;;;;;;;6.83;81.87;99716.75;5078121;28;20032;-76
2021/01/09 02:48:20;;;;;;;6.18;5.38;;;;;;;6.85;83.03;99727.44;5078600;28;20507;-76
2021/01/09 02:50:46;;;;;;;9.98;7.15;;;;;;;6.90;83.22;99739.06;5079068;28;20471;-76
2021/01/09 02:53:11;;;;;;;13.90;8.75;;;;;;;6.94;83.42;99730.91;5077508;28;20081;-76
2021/01/09 02:55:37;;;;;;;7.28;6.13;;;;;;;6.87;82.74;99722.38;5078788;28;20032;-76
2021/01/09 02:58:02;;;;;;;10.75;6.22;;;;;;;6.89;81.87;99725.59;5078904;28;20024;-76
2021/01/09 03:00:28;;;;;;;6.50;5.60;;;;;;;6.97;82.78;99749.53;5079547;28;20123;-76
2021/01/09 03:02:53;;;;;;;8.45;6.88;;;;;;;7.02;83.26;99754.81;5079643;28;20025;-76
2021/01/09 03:05:19;;;;;;;7.80;6.70;;;;;;;7.07;82.82;99787.78;5078403;28;20493;-76
2021/01/09 03:07:44;;;;;;;7.60;6.55;;;;;;;7.12;82.27;99801.38;5078748;28;20025;-76
2021/01/09 03:10:10;;;;;;;6.70;5.88;;;;;;;7.15;82.25;99791.59;5078000;28;20028;-76
2021/01/09 03:12:36;;;;;;;5.78;5.28;;;;;;;7.10;81.47;99787.09;5077449;28;20034;-76
2021/01/09 03:15:01;;;;;;;6.35;5.72;;;;;;;7.04;81.42;99777.44;5077617;28;20036;-76
2021/01/09 03:17:27;;;;;;;5.78;5.28;;;;;;;6.95;81.73;99747.13;5077752;28;20108;-76
2021/01/09 03:19:52;;;;;;;5.65;5.07;;;;;;;6.97;81.49;99744.00;5079135;28;20032;-77
2021/01/09 03:22:19;;;;;;;6.60;5.53;;;;;;;6.95;82.24;99741.59;5079609;28;20048;-76
2021/01/09 03:24:44;;;;;;;6.03;5.43;;;;;;;6.95;82.42;99751.84;5077643;28;20044;-76
2021/01/09 03:27:10;;;;;;;7.22;6.45;;;;;;;7.00;82.77;99762.69;5075924;28;20016;-76
2021/01/09 03:29:35;;;;;;;7.28;6.47;;;;;;;6.95;82.48;99743.56;5077174;28;20032;-76
2021/01/09 03:32:01;;;;;;;8.15;6.32;;;;;;;6.90;82.98;99743.81;5077350;28;20032;-76
2021/01/09 03:34:28;;;;;;;6.75;5.97;;;;;;;6.89;82.71;99742.19;5076775;28;20032;-76
2021/01/09 03:36:53;;;;;;;6.30;5.60;;;;;;;6.88;83.57;99755.22;5077243;28;20031;-76
2021/01/09 03:39:19;;;;;;;14.52;12.13;;;;;;;6.91;83.63;99771.09;5076929;28;20064;-76
2021/01/09 03:41:44;;;;;;;40.72;27.67;;;;;;;6.94;82.56;99764.09;5076438;28;20083;-76
2021/01/09 03:44:10;;;;;;;49.90;33.22;;;;;;;6.93;82.93;99765.25;5076988;28;20028;-75
2021/01/09 03:46:35;;;;;;;30.83;19.63;;;;;;;6.98;82.95;99756.72;5077407;28;20028;-76
2021/01/09 03:49:01;;;;;;;26.77;20.08;;;;;;;7.01;82.55;99745.72;5077154;28;20497;-76
2021/01/09 03:51:26;;;;;;;25.02;18.42;;;;;;;7.03;81.84;99745.38;5077058;28;20039;-77
2021/01/09 03:53:52;;;;;;;18.67;12.60;;;;;;;7.02;81.97;99730.72;5077191;28;20362;-76
2021/01/09 03:56:17;;;;;;;7.22;5.50;;;;;;;7.24;81.19;99732.16;5076657;28;20460;-76
2021/01/09 03:58:43;;;;;;;6.07;5.47;;;;;;;7.21;81.02;99726.53;5076186;28;20390;-76
2021/01/09 04:01:09;;;;;;;8.50;6.38;;;;;;;7.19;81.72;99729.69;5077357;28;20101;-76
2021/01/09 04:03:34;;;;;;;5.35;4.20;;;;;;;7.10;81.72;99731.78;5078169;28;20541;-76
2021/01/09 04:06:00;;;;;;;7.32;5.47;;;;;;;7.05;81.31;99734.78;5080939;28;20115;-76
2021/01/09 04:08:27;;;;;;;7.65;5.10;;;;;;;7.08;81.88;99739.59;5080914;28;20506;-76
2021/01/09 04:10:52;;;;;;;8.57;6.95;;;;;;;7.11;81.96;99736.13;5080805;28;20037;-76
2021/01/09 04:13:18;;;;;;;14.55;9.27;;;;;;;7.08;82.49;99734.06;5081135;28;20098;-76
2021/01/09 04:15:43;;;;;;;10.38;7.10;;;;;;;7.03;82.56;99739.84;5081324;28;20064;-76
2021/01/09 04:18:09;;;;;;;8.30;6.50;;;;;;;6.99;83.10;99727.88;5080110;28;20031;-76
2021/01/09 04:20:35;;;;;;;6.55;5.93;;;;;;;7.06;82.63;99742.72;5080976;28;20032;-76
2021/01/09 04:23:01;;;;;;;7.82;6.53;;;;;;;6.99;83.00;99736.19;5082076;28;20047;-76
2021/01/09 04:25:26;;;;;;;9.35;5.88;;;;;;;6.98;83.05;99724.31;5080597;28;20452;-76
2021/01/09 04:27:52;;;;;;;14.43;10.23;;;;;;;7.04;83.95;99722.09;5080800;28;20139;-76
2021/01/09 04:30:18;;;;;;;38.65;22.95;;;;;;;6.98;84.00;99717.97;5080305;28;20039;-76
2021/01/09 04:32:44;;;;;;;42.53;25.02;;;;;;;7.01;85.00;99720.84;5080474;28;20039;-76
2021/01/09 04:35:10;;;;;;;57.63;36.30;;;;;;;7.00;84.92;99712.91;5080941;28;20029;-76
2021/01/09 04:37:38;;;;;;;46.28;30.05;;;;;;;7.00;85.10;99704.59;5081519;28;20111;-76
2021/01/09 04:40:06;;;;;;;29.83;20.98;;;;;;;7.01;85.38;99707.00;5080808;28;20088;-75
2021/01/09 04:42:33;;;;;;;39.20;26.05;;;;;;;6.98;85.30;99715.22;5080651;28;20063;-76
2021/01/09 04:45:00;;;;;;;33.90;24.17;;;;;;;7.05;84.84;99723.72;5082571;28;20036;-76
2021/01/09 04:47:27;;;;;;;20.67;15.00;;;;;;;7.05;85.63;99723.72;5080596;28;20032;-76
2021/01/09 04:49:53;;;;;;;17.13;12.55;;;;;;;7.09;84.73;99724.63;5047146;28;20094;-76
2021/01/09 04:52:20;;;;;;;18.63;13.55;;;;;;;7.03;84.68;99715.78;5080463;28;20100;-76
2021/01/09 04:54:46;;;;;;;20.60;11.90;;;;;;;7.05;84.98;99718.97;5080460;28;20024;-76
2021/01/09 04:57:12;;;;;;;14.63;10.18;;;;;;;7.05;85.44;99710.69;5080571;28;20029;-76
2021/01/09 04:59:38;;;;;;;11.35;7.28;;;;;;;6.98;85.33;99713.25;5081201;28;20063;-76
2021/01/09 05:02:04;;;;;;;6.70;5.32;;;;;;;6.99;84.90;99725.13;5081122;28;20037;-76
2021/01/09 05:04:31;;;;;;;4.30;3.90;;;;;;;6.97;85.58;99732.94;5080702;28;20111;-76
2021/01/09 05:06:56;;;;;;;8.15;5.20;;;;;;;7.05;84.61;99746.66;5081140;28;20101;-76
2021/01/09 05:09:22;;;;;;;6.20;5.13;;;;;;;7.01;84.77;99744.94;5081077;28;20064;-76
2021/01/09 05:11:48;;;;;;;8.75;6.03;;;;;;;6.98;84.76;99745.63;5080683;28;20100;-76
2021/01/09 05:14:13;;;;;;;5.13;4.63;;;;;;;6.96;84.11;99737.66;5080950;28;20029;-76
2021/01/09 05:16:39;;;;;;;6.93;4.75;;;;;;;7.02;84.78;99741.00;5079645;28;20479;-76
2021/01/09 05:19:07;;;;;;;5.75;4.50;;;;;;;6.99;84.40;99747.25;5080566;28;20032;-75
2021/01/09 05:21:35;;;;;;;5.53;3.83;;;;;;;7.02;84.22;99757.59;5081185;28;20479;-76
2021/01/09 05:24:02;;;;;;;4.63;4.20;;;;;;;7.03;83.67;99764.72;5080822;28;20528;-76
2021/01/09 05:26:30;;;;;;;5.22;4.72;;;;;;;7.04;84.20;99777.44;5080894;28;20074;-75
2021/01/09 05:29:01;;;;;;;9.57;4.78;;;;;;;7.04;83.19;99769.13;5064842;28;20029;-76
2021/01/09 05:31:28;;;;;;;6.30;5.53;;;;;;;7.04;82.84;99771.91;5081360;28;20047;-76
2021/01/09 05:33:54;;;;;;;4.72;4.22;;;;;;;7.04;82.18;99778.25;5081511;28;20119;-75
2021/01/09 05:36:22;;;;;;;4.03;3.53;;;;;;;7.06;81.27;99770.38;5081589;28;20032;-76
2021/01/09 05:38:49;;;;;;;3.90;3.15;;;;;;;7.03;81.00;99765.56;5080677;28;20062;-76
2021/01/09 05:41:17;;;;;;;4.82;4.38;;;;;;;7.07;81.58;99771.19;5079017;28;20040;-76
2021/01/09 05:44:08;;;;;;;4.95;4.15;;;;;;;7.08;81.38;99778.31;5079717;28;20032;-76
2021/01/09 05:46:40;;;;;;;6.40;4.68;;;;;;;7.08;82.06;99781.09;5079544;28;20507;-77
2021/01/09 05:49:07;;;;;;;4.68;4.07;;;;;;;7.08;82.28;99781.94;5083032;28;20028;-76
2021/01/09 05:51:35;;;;;;;4.30;3.90;;;;;;;7.18;82.96;99782.56;5080963;28;20056;-76
2021/01/09 05:54:01;;;;;;;5.38;4.55;;;;;;;7.08;82.82;99779.16;5079823;28;20020;-76
2021/01/09 05:56:27;;;;;;;8.35;4.68;;;;;;;7.13;84.08;99794.69;5076708;28;20025;-76
2021/01/09 05:58:55;;;;;;;10.00;5.10;;;;;;;7.09;84.09;99799.31;5059774;28;20020;-76
2021/01/09 06:01:29;;;;;;;5.03;4.53;;;;;;;7.15;84.25;99797.13;5059709;28;20534;-76
2021/01/09 06:04:05;;;;;;;4.40;3.70;;;;;;;7.18;84.25;99794.44;5076034;28;20473;-76
2021/01/09 06:06:52;;;;;;;3.95;3.58;;;;;;;7.21;83.51;99785.47;5076095;28;20382;-76
2021/01/09 06:09:21;;;;;;;5.03;3.92;;;;;;;7.14;84.61;99776.94;5076392;28;20033;-76
2021/01/09 06:11:48;;;;;;;3.95;3.55;;;;;;;7.10;85.33;99773.28;5075827;28;20043;-76
2021/01/09 06:14:14;;;;;;;4.45;4.05;;;;;;;7.09;85.36;99783.53;5076181;28;20498;-76
2021/01/09 06:16:42;;;;;;;7.80;4.10;;;;;;;7.08;85.17;99778.31;5076330;28;20055;-76
2021/01/09 06:19:09;;;;;;;5.05;4.53;;;;;;;7.12;85.52;99773.72;5077323;28;20032;-75
2021/01/09 06:21:36;;;;;;;10.00;4.57;;;;;;;7.11;86.01;99777.63;5075832;28;20475;-76
2021/01/09 06:24:03;;;;;;;4.45;4.05;;;;;;;7.09;85.40;99774.44;5075970;28;20032;-75
2021/01/09 06:26:30;;;;;;;4.78;4.03;;;;;;;7.05;86.00;99766.00;5075182;28;20028;-75
2021/01/09 06:29:19;;;;;;;5.13;4.22;;;;;;;7.13;86.25;99775.31;5075305;28;20024;-75
2021/01/09 06:31:50;;;;;;;4.97;4.35;;;;;;;7.06;85.94;99764.84;5075257;28;20467;-75
2021/01/09 06:34:19;;;;;;;4.80;4.32;;;;;;;7.09;86.49;99768.91;5074944;28;20057;-75
2021/01/09 06:36:50;;;;;;;5.60;5.00;;;;;;;7.11;86.30;99772.09;5074652;28;20035;-76
2021/01/09 06:39:15;;;;;;;7.10;6.30;;;;;;;7.05;86.26;99774.31;5074949;28;20025;-75
2021/01/09 06:41:43;;;;;;;8.95;7.07;;;;;;;7.06;86.22;99769.56;5074773;28;20121;-75
2021/01/09 06:44:13;;;;;;;11.35;8.88;;;;;;;7.05;86.84;99762.44;5075977;28;20029;-75
2021/01/09 06:46:39;;;;;;;15.32;10.20;;;;;;;7.06;86.36;99761.28;5076085;28;20029;-76
2021/01/09 06:49:04;;;;;;;22.40;13.45;;;;;;;7.11;87.31;99766.56;5075940;28;20051;-75
2021/01/09 06:51:40;;;;;;;27.60;17.67;;;;;;;7.10;87.36;99756.66;5076650;28;20040;-76
2021/01/09 06:54:15;;;;;;;50.58;31.67;;;;;;;7.07;87.23;99744.31;5076859;28;20035;-74
2021/01/09 06:56:49;;;;;;;50.40;31.00;;;;;;;7.06;87.23;99742.72;5077084;28;20105;-76
2021/01/09 06:59:27;;;;;;;43.55;28.52;;;;;;;7.07;87.14;99743.53;5077635;28;20031;-76
2021/01/09 07:02:08;;;;;;;44.42;29.67;;;;;;;7.07;87.36;99743.53;5077480;28;20178;-76
2021/01/09 07:04:55;;;;;;;55.58;34.70;;;;;;;7.13;87.05;99744.09;5077738;28;20028;-75
2021/01/09 07:07:32;;;;;;;66.28;41.38;;;;;;;7.26;86.87;99748.44;5076784;28;20033;-76
2021/01/09 07:10:12;;;;;;;69.07;42.72;;;;;;;7.23;86.30;99752.69;5077871;28;20032;-76
2021/01/09 07:12:41;;;;;;;52.25;32.63;;;;;;;7.20;86.34;99753.41;5075973;28;20029;-75
2021/01/09 07:15:09;;;;;;;36.38;23.10;;;;;;;7.19;86.63;99760.09;5077226;28;20035;-76
2021/01/09 07:17:41;;;;;;;18.85;14.07;;;;;;;7.22;86.86;99759.38;5077632;28;20059;-76
2021/01/09 07:20:09;;;;;;;26.48;16.65;;;;;;;7.19;85.97;99751.81;5078070;28;20116;-76
2021/01/09 07:22:48;;;;;;;23.15;15.10;;;;;;;7.25;86.36;99744.06;5077853;28;20029;-76
2021/01/09 07:25:22;;;;;;;19.65;13.57;;;;;;;7.27;86.19;99728.72;5078685;28;20036;-76
2021/01/09 07:27:49;;;;;;;20.15;14.80;;;;;;;7.32;86.12;99727.66;5078311;28;20460;-76
2021/01/09 07:30:19;;;;;;;22.25;16.20;;;;;;;7.34;85.84;99737.19;5078467;28;20024;-76
2021/01/09 07:32:49;;;;;;;28.38;20.55;;;;;;;7.47;86.28;99734.41;5074176;28;20402;-76
2021/01/09 07:35:22;;;;;;;26.27;21.40;;;;;;;7.50;86.10;99739.22;5078824;28;20059;-76
2021/01/09 07:37:51;;;;;;;26.50;19.45;;;;;;;7.47;86.26;99731.63;5079969;28;20444;-76
2021/01/09 07:40:19;;;;;;;27.92;20.70;;;;;;;7.56;86.25;99735.03;5084349;28;20064;-76
2021/01/09 07:42:46;;;;;;;26.83;20.55;;;;;;;7.57;86.88;99707.00;5104727;28;20479;-74
2021/01/09 07:45:20;;;;;;;27.10;20.67;;;;;;;7.59;86.93;99703.88;5089364;28;20028;-76
2021/01/09 07:47:48;;;;;;;25.23;19.40;;;;;;;7.63;86.32;99709.53;5089237;28;20413;-76
2021/01/09 07:50:17;;;;;;;26.88;20.20;;;;;;;7.71;86.78;99712.13;5072904;28;20044;-76
2021/01/09 07:52:43;;;;;;;28.63;19.67;;;;;;;7.72;86.91;99705.41;5089687;28;20462;-76
2021/01/09 07:55:14;;;;;;;22.55;18.83;;;;;;;7.60;86.74;99678.59;5088188;28;20051;-76
2021/01/09 07:57:40;;;;;;;23.23;17.48;;;;;;;7.75;87.17;99690.88;5088061;28;20040;-76
2021/01/09 08:00:09;;;;;;;26.27;18.40;;;;;;;7.89;86.66;99695.97;5088768;28;20035;-76
2021/01/09 08:02:40;;;;;;;24.70;17.75;;;;;;;7.93;86.87;99702.41;5088667;28;20035;-77
2021/01/09 08:05:10;;;;;;;24.65;18.05;;;;;;;7.98;86.43;99693.00;5084381;28;20054;-76
2021/01/09 08:07:37;;;;;;;22.90;17.90;;;;;;;7.99;86.66;99689.06;5083311;28;20050;-76
2021/01/09 08:10:27;;;;;;;19.17;14.88;;;;;;;8.00;86.47;99697.06;5082570;28;20031;-76
2021/01/09 08:13:06;;;;;;;20.00;16.85;;;;;;;8.05;86.12;99704.28;5102403;28;20024;-77
2021/01/09 08:15:33;;;;;;;25.83;20.92;;;;;;;8.04;86.07;99697.97;5085109;28;20040;-77
2021/01/09 08:18:01;;;;;;;21.50;18.33;;;;;;;8.05;85.34;99699.56;5102023;28;20482;-76
2021/01/09 08:20:27;;;;;;;35.08;21.98;;;;;;;8.07;85.37;99690.88;5080691;28;20030;-76
2021/01/09 08:23:04;;;;;;;22.48;16.73;;;;;;;8.11;83.67;99675.94;5081408;28;20027;-76
2021/01/09 08:25:34;;;;;;;22.70;17.38;;;;;;;8.10;84.00;99679.91;5080912;28;20027;-76
2021/01/09 08:28:02;;;;;;;28.23;22.02;;;;;;;8.16;84.29;99677.66;5080576;28;20085;-76
2021/01/09 08:30:33;;;;;;;22.67;16.38;;;;;;;8.20;83.91;99699.88;5081526;28;20060;-76
2021/01/09 08:33:09;;;;;;;20.67;14.63;;;;;;;8.19;84.25;99690.78;5081136;28;20035;-76
2021/01/09 08:35:36;;;;;;;26.58;17.92;;;;;;;8.30;84.14;99691.03;5080823;28;20115;-76
2021/01/09 08:38:02;;;;;;;21.45;16.88;;;;;;;8.28;84.03;99707.22;5080941;28;20028;-76
2021/01/09 08:40:28;;;;;;;24.30;19.23;;;;;;;8.23;84.91;99708.31;5081219;28;20382;-76
2021/01/09 08:43:14;;;;;;;24.38;17.48;;;;;;;8.24;84.89;99717.41;5079861;28;20052;-76
2021/01/09 08:45:56;;;;;;;24.35;16.08;;;;;;;8.21;85.14;99705.09;5079952;28;20044;-76
2021/01/09 08:48:24;;;;;;;18.55;14.85;;;;;;;8.18;85.07;99688.38;5080526;28;20047;-76
2021/01/09 08:50:57;;;;;;;16.52;13.07;;;;;;;8.28;83.67;99716.34;5079180;28;20016;-76
2021/01/09 08:53:30;;;;;;;18.45;14.13;;;;;;;8.32;84.08;99716.44;5079428;28;20355;-76
2021/01/09 08:56:03;;;;;;;14.90;11.05;;;;;;;8.37;83.05;99713.44;5075886;28;20032;-77
2021/01/09 08:58:33;;;;;;;11.30;9.27;;;;;;;8.38;82.57;99706.72;5078697;28;20028;-76
2021/01/09 09:01:06;;;;;;;9.27;7.68;;;;;;;8.46;82.18;99714.03;5078728;28;20539;-76
2021/01/09 09:03:33;;;;;;;10.75;8.73;;;;;;;8.53;81.84;99699.53;5062361;28;20047;-77
2021/01/09 09:06:05;;;;;;;10.13;8.88;;;;;;;8.57;81.11;99694.88;5078504;28;20178;-76
2021/01/09 09:08:33;;;;;;;13.52;10.13;;;;;;;8.51;80.59;99699.09;5078409;28;20035;-76
2021/01/09 09:11:01;;;;;;;11.68;8.90;;;;;;;8.51;79.40;99694.34;5078314;28;20027;-77
2021/01/09 09:13:27;;;;;;;13.18;9.80;;;;;;;8.52;80.64;99706.22;5078476;28;20035;-77
2021/01/09 09:15:52;;;;;;;19.75;12.05;;;;;;;8.57;80.01;99715.06;5078365;28;20036;-77
2021/01/09 09:18:19;;;;;;;13.82;10.07;;;;;;;8.65;79.60;99721.59;5078171;28;20032;-77
2021/01/09 09:20:50;;;;;;;13.10;9.02;;;;;;;8.52;80.14;99722.88;5078155;28;20024;-77
2021/01/09 09:23:24;;;;;;;10.88;7.47;;;;;;;8.44;80.15;99721.09;5079300;28;20060;-76
2021/01/09 09:26:16;;;;;;;13.30;10.13;;;;;;;8.42;80.50;99729.00;5079220;28;20078;-76
2021/01/09 09:28:48;;;;;;;13.95;9.00;;;;;;;8.45;80.64;99736.56;5078936;28;20031;-76
2021/01/09 09:31:34;;;;;;;12.25;8.30;;;;;;;8.46;81.06;99727.09;5078134;28;20031;-76
2021/01/09 09:34:27;;;;;;;11.20;8.00;;;;;;;8.46;81.54;99702.13;5078252;28;20039;-76
2021/01/09 09:36:52;;;;;;;12.43;8.55;;;;;;;8.39;80.98;99703.56;5076272;28;20047;-76
2021/01/09 09:39:20;;;;;;;11.23;9.15;;;;;;;8.32;81.72;99703.38;5077746;28;20031;-76
2021/01/09 09:41:54;;;;;;;13.77;11.63;;;;;;;8.25;81.92;99725.38;5074112;28;20044;-76
2021/01/09 09:44:22;;;;;;;17.05;12.02;;;;;;;8.26;83.26;99721.47;5074760;28;20083;-76
2021/01/09 09:46:49;;;;;;;15.15;11.70;;;;;;;8.21;83.24;99726.47;5074260;28;20029;-77
2021/01/09 09:49:15;;;;;;;12.10;10.07;;;;;;;8.13;83.50;99728.22;5074810;28;20168;-76
2021/01/09 09:51:41;;;;;;;12.02;10.57;;;;;;;8.19;83.66;99734.31;5058569;28;20368;-76
2021/01/09 09:54:06;;;;;;;9.93;8.93;;;;;;;8.25;83.17;99725.38;5074097;28;20039;-76
2021/01/09 09:56:41;;;;;;;16.67;10.32;;;;;;;8.16;83.60;99710.91;5074698;28;20048;-76
2021/01/09 09:59:09;;;;;;;13.25;10.77;;;;;;;8.16;84.22;99699.81;5075951;28;20551;-76
2021/01/09 10:01:35;;;;;;;11.65;8.77;;;;;;;8.19;83.31;99696.31;5073597;28;20039;-76
2021/01/09 10:04:03;;;;;;;9.02;8.15;;;;;;;8.18;82.13;99680.84;5074111;28;20025;-76
2021/01/09 10:06:35;;;;;;;7.78;6.55;;;;;;;8.19;80.67;99681.66;5074292;28;20028;-76
2021/01/09 10:09:34;;;;;;;9.10;7.70;;;;;;;8.27;80.00;99656.53;5073992;28;20059;-76
2021/01/09 10:12:09;;;;;;;9.55;7.63;;;;;;;8.21;79.93;99646.09;5073626;28;20036;-75
2021/01/09 10:14:36;;;;;;;10.40;7.82;;;;;;;8.36;79.87;99639.72;5074806;28;20036;-75
2021/01/09 10:17:02;;;;;;;13.80;8.38;;;;;;;8.43;79.88;99636.34;5076338;28;20396;-75
2021/01/09 10:19:27;;;;;;;12.43;9.90;;;;;;;8.42;80.23;99610.59;5077036;28;20147;-75
2021/01/09 10:21:53;;;;;;;12.35;9.45;;;;;;;8.61;79.49;99607.00;5076319;28;20060;-75
2021/01/09 10:24:18;;;;;;;16.50;12.80;;;;;;;8.63;79.78;99563.91;5077162;28;20110;-76
2021/01/09 10:26:44;;;;;;;14.25;10.85;;;;;;;8.89;79.60;99587.38;5076960;28;20498;-76
2021/01/09 10:29:09;;;;;;;25.45;18.80;;;;;;;9.17;80.34;99587.94;5077037;28;20368;-76
2021/01/09 10:31:38;;;;;;;30.15;22.60;;;;;;;9.16;79.95;99568.88;5077364;28;20030;-76
2021/01/09 10:34:06;;;;;;;30.35;23.45;;;;;;;9.47;79.38;99578.16;5077067;28;20020;-76
2021/01/09 10:36:36;;;;;;;27.83;22.08;;;;;;;9.42;79.25;99577.28;5076487;28;20033;-77
2021/01/09 10:39:05;;;;;;;21.02;16.27;;;;;;;9.51;79.52;99596.47;5060542;28;20028;-76
2021/01/09 10:41:30;;;;;;;20.52;15.90;;;;;;;9.60;79.00;99593.47;5086183;28;20079;-75
2021/01/09 10:43:56;;;;;;;16.15;13.88;;;;;;;9.55;78.28;99596.56;5081445;28;20121;-75
2021/01/09 10:46:24;;;;;;;25.25;17.50;;;;;;;9.44;78.26;99599.16;5080148;28;20032;-75
2021/01/09 10:48:51;;;;;;;14.98;12.63;;;;;;;9.36;79.16;99605.72;5078102;28;20040;-76
2021/01/09 10:51:18;;;;;;;21.42;15.77;;;;;;;9.36;80.20;99587.09;5077852;28;20031;-76
2021/01/09 10:53:44;;;;;;;19.23;13.73;;;;;;;9.44;79.41;99579.72;5076796;28;20024;-76
2021/01/09 10:56:10;;;;;;;12.70;10.10;;;;;;;9.31;80.09;99570.75;5077401;28;20036;-75
2021/01/09 10:58:36;;;;;;;13.68;9.57;;;;;;;9.33;80.01;99582.28;5077387;28;20047;-76
2021/01/09 11:01:04;;;;;;;15.02;11.38;;;;;;;9.40;80.88;99556.63;5077492;28;20036;-76
2021/01/09 11:03:30;;;;;;;42.55;30.25;;;;;;;9.75;79.45;99550.88;5076725;28;20089;-76
2021/01/09 11:05:56;;;;;;;26.95;20.95;;;;;;;9.78;79.96;99540.97;5075807;28;20031;-75
2021/01/09 11:08:22;;;;;;;39.85;29.38;;;;;;;10.03;80.08;99538.59;5076220;28;20035;-73
2021/01/09 11:10:48;;;;;;;40.72;31.08;;;;;;;10.10;80.23;99541.47;5076739;28;20466;-76
2021/01/09 11:13:14;;;;;;;20.25;16.55;;;;;;;10.07;79.44;99528.34;5077665;28;20530;-73
2021/01/09 11:15:46;;;;;;;15.15;10.90;;;;;;;10.04;77.17;99534.63;5076547;28;20044;-75
2021/01/09 11:18:12;;;;;;;9.80;8.77;;;;;;;9.95;77.08;99521.78;5076721;28;20051;-76
2021/01/09 11:20:38;;;;;;;9.23;7.90;;;;;;;9.83;77.13;99516.44;5082496;28;20020;-76
2021/01/09 11:23:05;;;;;;;11.38;9.57;;;;;;;9.82;77.27;99522.41;5077352;28;20032;-77
2021/01/09 11:25:30;;;;;;;10.95;8.40;;;;;;;9.79;77.24;99512.81;5077397;28;20024;-73
2021/01/09 11:27:56;;;;;;;11.52;9.60;;;;;;;9.77;77.23;99508.81;5076503;28;20038;-76
2021/01/09 11:30:22;;;;;;;9.15;7.53;;;;;;;9.71;76.82;99505.56;5085162;28;20088;-77
2021/01/09 11:32:47;;;;;;;15.02;11.00;;;;;;;9.54;77.21;99501.34;5082266;28;20036;-73
2021/01/09 11:35:13;;;;;;;9.80;7.88;;;;;;;9.56;77.74;99498.19;5081092;28;20028;-76
2021/01/09 11:37:38;;;;;;;9.68;8.65;;;;;;;9.48;78.09;99485.34;5079338;28;20028;-76
2021/01/09 11:40:05;;;;;;;10.23;9.15;;;;;;;9.45;77.97;99495.22;5081128;28;20028;-77